createdAt,value
2018-04-18T00:00:56.656Z,98105.45
2018-04-18T00:03:24.061Z,98103.87
2018-04-18T00:05:51.552Z,98096.54
2018-04-18T00:08:19.017Z,98099.18
2018-04-18T00:10:46.471Z,98098.44
2018-04-18T00:13:13.895Z,98100.92
2018-04-18T00:15:41.319Z,98107.09
2018-04-18T00:18:08.718Z,98105.60
2018-04-18T00:20:39.225Z,98109.09
2018-04-18T00:23:06.688Z,98107.82
2018-04-18T00:25:34.087Z,98112.84
2018-04-18T00:28:01.544Z,98106.15
2018-04-18T00:30:28.947Z,98108.46
2018-04-18T00:32:56.394Z,98107.84
2018-04-18T00:35:23.833Z,98109.52
2018-04-18T00:37:51.266Z,98109.83
2018-04-18T00:40:18.752Z,98111.53
2018-04-18T00:42:46.146Z,98108.27
2018-04-18T00:45:13.580Z,98110.24
2018-04-18T00:47:41.048Z,98108.38
2018-04-18T00:50:08.467Z,98114.45
2018-04-18T00:52:35.914Z,98110.45
2018-04-18T00:55:03.352Z,98106.85
2018-04-18T00:57:34.004Z,98113.37
2018-04-18T01:00:01.556Z,98111.20
2018-04-18T01:02:29.053Z,98118.47
2018-04-18T01:04:56.521Z,98113.72
2018-04-18T01:07:24.044Z,98118.40
2018-04-18T01:09:51.504Z,98117.83
2018-04-18T01:12:18.950Z,98120.29
2018-04-18T01:14:46.382Z,98119.45
2018-04-18T01:17:13.815Z,98124.28
2018-04-18T01:19:41.235Z,98129.88
2018-04-18T01:22:08.640Z,98127.39
2018-04-18T01:24:36.033Z,98125.34
2018-04-18T01:27:03.486Z,98125.49
2018-04-18T01:29:30.969Z,98127.77
2018-04-18T01:31:58.451Z,98129.95
2018-04-18T01:34:25.854Z,98131.35
2018-04-18T01:36:53.328Z,98122.29
2018-04-18T01:39:20.751Z,98126.64
2018-04-18T01:41:48.160Z,98127.34
2018-04-18T01:44:15.649Z,98131.03
2018-04-18T01:46:43.055Z,98134.73
2018-04-18T01:49:22.395Z,98134.80
2018-04-18T01:51:49.986Z,98138.67
2018-04-18T01:54:17.374Z,98143.14
2018-04-18T01:56:48.900Z,98143.41
2018-04-18T01:59:16.496Z,98138.48
2018-04-18T02:01:43.924Z,98142.72
2018-04-18T02:04:11.349Z,98142.77
2018-04-18T02:06:38.773Z,98140.64
2018-04-18T02:09:06.221Z,98142.86
2018-04-18T02:11:33.626Z,98147.38
2018-04-18T02:14:01.104Z,98144.99
2018-04-18T02:16:28.543Z,98139.38
2018-04-18T02:18:56.058Z,98139.10
2018-04-18T02:21:23.508Z,98145.86
2018-04-18T02:23:53.943Z,98139.27
2018-04-18T02:26:21.398Z,98146.33
2018-04-18T02:28:48.873Z,98138.84
2018-04-18T02:31:16.288Z,98142.58
2018-04-18T02:33:43.696Z,98150.08
2018-04-18T02:36:11.082Z,98147.50
2018-04-18T02:38:39.265Z,98145.34
2018-04-18T02:41:06.694Z,98141.29
2018-04-18T02:43:34.151Z,98142.34
2018-04-18T02:46:01.541Z,98146.66
2018-04-18T02:48:28.967Z,98149.66
2018-04-18T02:50:59.697Z,98147.86
2018-04-18T02:53:27.130Z,98140.83
2018-04-18T02:55:54.590Z,98144.62
2018-04-18T02:58:22.076Z,98150.09
2018-04-18T03:00:49.547Z,98154.10
2018-04-18T03:03:16.991Z,98157.45
2018-04-18T03:05:44.473Z,98147.45
2018-04-18T03:08:11.895Z,98150.91
2018-04-18T03:10:39.692Z,98147.92
2018-04-18T03:13:07.206Z,98153.30
2018-04-18T03:15:34.595Z,98155.92
2018-04-18T03:18:02.027Z,98156.19
2018-04-18T03:20:29.493Z,98153.07
2018-04-18T03:22:56.911Z,98149.41
2018-04-18T03:25:27.780Z,98149.75
2018-04-18T03:27:55.236Z,98152.70
2018-04-18T03:30:22.659Z,98148.83
2018-04-18T03:32:50.094Z,98152.78
2018-04-18T03:35:17.575Z,98158.92
2018-04-18T03:37:45.038Z,98150.70
2018-04-18T03:40:13.191Z,98148.67
2018-04-18T03:42:40.617Z,98150.55
2018-04-18T03:45:08.396Z,98152.60
2018-04-18T03:47:35.860Z,98147.33
2018-04-18T03:50:03.300Z,98154.05
2018-04-18T03:52:30.772Z,98148.78
2018-04-18T03:54:58.172Z,98148.33
2018-04-18T03:57:25.592Z,98147.56
2018-04-18T03:59:53.060Z,98143.27
2018-04-18T04:02:20.534Z,98149.36
2018-04-18T04:04:47.945Z,98150.12
2018-04-18T04:07:15.409Z,98146.95
2018-04-18T04:09:42.872Z,98148.78
2018-04-18T04:12:10.307Z,98155.52
2018-04-18T04:14:38.255Z,98154.89
2018-04-18T04:17:17.337Z,98152.34
2018-04-18T04:19:56.484Z,98154.95
2018-04-18T04:22:38.793Z,98156.34
2018-04-18T04:25:06.354Z,98155.69
2018-04-18T04:27:33.812Z,98161.17
2018-04-18T04:30:01.253Z,98163.09
2018-04-18T04:32:28.727Z,98164.36
2018-04-18T04:34:56.126Z,98158.14
2018-04-18T04:37:23.590Z,98162.91
2018-04-18T04:39:51.024Z,98167.15
2018-04-18T04:42:18.455Z,98161.96
2018-04-18T04:44:45.883Z,98167.95
2018-04-18T04:47:13.282Z,98173.03
2018-04-18T04:49:40.740Z,98172.98
2018-04-18T04:52:08.163Z,98172.14
2018-04-18T04:54:38.647Z,98181.12
2018-04-18T04:57:06.078Z,98179.52
2018-04-18T04:59:33.622Z,98180.92
2018-04-18T05:02:01.061Z,98187.30
2018-04-18T05:04:29.349Z,98179.43
2018-04-18T05:06:56.839Z,98188.20
2018-04-18T05:09:24.263Z,98190.02
2018-04-18T05:11:51.743Z,98187.77
2018-04-18T05:14:19.160Z,98192.03
2018-04-18T05:16:46.586Z,98193.52
2018-04-18T05:19:14.060Z,98201.43
2018-04-18T05:21:42.252Z,98204.31
2018-04-18T05:24:09.725Z,98210.43
2018-04-18T05:26:37.155Z,98219.00
2018-04-18T05:29:07.945Z,98218.16
2018-04-18T05:31:35.406Z,98215.56
2018-04-18T05:34:02.948Z,98216.87
2018-04-18T05:36:30.350Z,98219.98
2018-04-18T05:38:57.804Z,98220.69
2018-04-18T05:41:25.199Z,98219.69
2018-04-18T05:43:52.610Z,98225.84
2018-04-18T05:46:20.155Z,98229.95
2018-04-18T05:48:47.640Z,98231.08
2018-04-18T05:51:15.122Z,98233.70
2018-04-18T05:53:42.613Z,98237.11
2018-04-18T05:56:10.073Z,98242.09
2018-04-18T05:58:40.691Z,98244.39
2018-04-18T06:01:08.100Z,98241.16
2018-04-18T06:03:35.508Z,98242.73
2018-04-18T06:06:02.976Z,98234.96
2018-04-18T06:08:30.442Z,98238.74
2018-04-18T06:10:57.843Z,98240.63
2018-04-18T06:13:25.276Z,98242.69
2018-04-18T06:15:52.708Z,98240.66
2018-04-18T06:18:20.394Z,98246.55
2018-04-18T06:20:51.111Z,98247.89
2018-04-18T06:23:18.581Z,98251.63
2018-04-18T06:25:45.978Z,98246.75
2018-04-18T06:28:13.503Z,98247.83
2018-04-18T06:30:40.940Z,98255.95
2018-04-18T06:33:08.378Z,98248.98
2018-04-18T06:35:35.808Z,98252.02
2018-04-18T06:38:03.241Z,98252.81
2018-04-18T06:40:30.637Z,98246.85
2018-04-18T06:42:58.099Z,98249.23
2018-04-18T06:45:25.517Z,98244.08
2018-04-18T06:47:53.031Z,98243.17
2018-04-18T06:50:21.387Z,98244.05
2018-04-18T06:52:51.907Z,98243.13
2018-04-18T06:55:19.352Z,98240.77
2018-04-18T06:57:46.765Z,98238.63
2018-04-18T07:00:14.254Z,98238.93
2018-04-18T07:02:41.735Z,98230.65
2018-04-18T07:05:09.133Z,98236.83
2018-04-18T07:07:36.550Z,98237.56
2018-04-18T07:10:03.983Z,98233.96
2018-04-18T07:12:31.462Z,98239.09
2018-04-18T07:14:58.917Z,98241.97
2018-04-18T07:17:26.409Z,98245.32
2018-04-18T07:19:53.874Z,98244.25
2018-04-18T07:22:24.590Z,98248.12
2018-04-18T07:24:52.048Z,98253.83
2018-04-18T07:27:19.609Z,98259.34
2018-04-18T07:29:47.094Z,98255.41
2018-04-18T07:32:14.568Z,98261.38
2018-04-18T07:34:41.977Z,98260.02
2018-04-18T07:37:09.445Z,98261.69
2018-04-18T07:39:36.884Z,98260.27
2018-04-18T07:42:04.303Z,98260.50
2018-04-18T07:44:31.783Z,98262.22
2018-04-18T07:46:59.265Z,98260.22
2018-04-18T07:49:26.727Z,98262.02
2018-04-18T07:51:57.242Z,98266.82
2018-04-18T07:54:24.699Z,98266.92
2018-04-18T07:56:52.261Z,98262.11
2018-04-18T07:59:19.769Z,98263.75
2018-04-18T08:01:47.267Z,98260.42
2018-04-18T08:04:14.763Z,98256.44
2018-04-18T08:06:42.220Z,98259.70
2018-04-18T08:09:09.674Z,98267.91
2018-04-18T08:11:37.123Z,98269.86
2018-04-18T08:14:04.537Z,98270.39
2018-04-18T08:16:31.974Z,98272.94
2018-04-18T08:18:59.448Z,98268.78
2018-04-18T08:21:27.054Z,98265.22
2018-04-18T08:23:57.608Z,98261.67
2018-04-18T08:26:25.208Z,98269.00
2018-04-18T08:28:52.636Z,98268.91
2018-04-18T08:31:20.134Z,98270.77
2018-04-18T08:33:47.712Z,98267.22
2018-04-18T08:36:15.157Z,98271.28
2018-04-18T08:38:42.625Z,98274.72
2018-04-18T08:41:13.620Z,98265.92
2018-04-18T08:43:41.059Z,98275.69
2018-04-18T08:46:08.483Z,98282.27
2018-04-18T08:48:35.930Z,98280.17
2018-04-18T08:51:03.371Z,98284.80
2018-04-18T08:53:30.795Z,98283.25
2018-04-18T08:55:58.267Z,98281.61
2018-04-18T08:58:25.662Z,98282.53
2018-04-18T09:00:56.435Z,98290.52
2018-04-18T09:03:23.856Z,98286.55
2018-04-18T09:05:51.433Z,98280.22
2018-04-18T09:08:18.972Z,98280.75
2018-04-18T09:10:46.489Z,98282.88
2018-04-18T09:13:13.920Z,98284.05
2018-04-18T09:15:41.366Z,98282.98
2018-04-18T09:18:08.884Z,98286.05
2018-04-18T09:20:36.354Z,98280.67
2018-04-18T09:23:06.912Z,98279.08
2018-04-18T09:25:34.320Z,98285.70
2018-04-18T09:28:01.752Z,98286.96
2018-04-18T09:30:29.144Z,98284.07
2018-04-18T09:32:56.621Z,98288.63
2018-04-18T09:35:24.080Z,98285.92
2018-04-18T09:37:51.510Z,98281.30
2018-04-18T09:40:18.960Z,98282.38
2018-04-18T09:42:46.435Z,98274.06
2018-04-18T09:45:13.870Z,98277.30
2018-04-18T09:47:41.256Z,98274.25
2018-04-18T09:50:08.801Z,98272.03
2018-04-18T09:52:39.636Z,98272.85
2018-04-18T09:55:07.091Z,98270.24
2018-04-18T09:57:34.580Z,98271.17
2018-04-18T10:00:02.059Z,98264.61
2018-04-18T10:02:29.587Z,98266.96
2018-04-18T10:05:11.645Z,98267.00
2018-04-18T10:07:42.190Z,98272.67
2018-04-18T10:10:09.644Z,98268.97
2018-04-18T10:12:37.113Z,98268.55
2018-04-18T10:15:04.596Z,98264.94
2018-04-18T10:17:32.064Z,98260.95
2018-04-18T10:19:59.465Z,98266.48
2018-04-18T10:22:26.856Z,98261.13
2018-04-18T10:24:54.274Z,98262.26
2018-04-18T10:27:21.800Z,98258.47
2018-04-18T10:29:52.572Z,98261.83
2018-04-18T10:32:20.053Z,98257.58
2018-04-18T10:34:47.464Z,98260.90
2018-04-18T10:37:14.897Z,98255.89
2018-04-18T10:39:42.376Z,98258.78
2018-04-18T10:42:09.768Z,98259.55
2018-04-18T10:44:37.232Z,98254.87
2018-04-18T10:47:04.680Z,98247.98
2018-04-18T10:49:32.111Z,98244.34
2018-04-18T10:51:59.824Z,98248.17
2018-04-18T10:54:30.455Z,98240.99
2018-04-18T10:56:57.876Z,98232.59
2018-04-18T10:59:25.329Z,98235.35
2018-04-18T11:01:52.737Z,98232.13
2018-04-18T11:04:20.147Z,98234.46
2018-04-18T11:06:47.543Z,98230.16
2018-04-18T11:09:14.976Z,98235.98
2018-04-18T11:11:42.544Z,98229.48
2018-04-18T11:14:10.231Z,98232.20
2018-04-18T11:16:37.716Z,98224.95
2018-04-18T11:19:05.885Z,98226.83
2018-04-18T11:21:33.426Z,98223.45
2018-04-18T11:24:00.879Z,98221.42
2018-04-18T11:26:28.350Z,98220.54
2018-04-18T11:28:55.800Z,98214.02
2018-04-18T11:31:23.251Z,98213.82
2018-04-18T11:33:50.703Z,98216.34
2018-04-18T11:38:51.964Z,98204.16
2018-04-18T11:41:19.405Z,98210.27
2018-04-18T11:43:46.804Z,98204.19
2018-04-18T11:46:14.203Z,98202.70
2018-04-18T11:48:41.736Z,98199.30
2018-04-18T11:51:09.231Z,98202.81
2018-04-18T11:53:36.624Z,98189.89
2018-04-18T11:56:04.057Z,98190.88
2018-04-18T11:58:31.595Z,98194.96
2018-04-18T12:00:59.081Z,98193.37
2018-04-18T12:03:26.484Z,98188.28
2018-04-18T12:05:54.011Z,98185.61
2018-04-18T12:08:21.479Z,98185.90
2018-04-18T12:10:48.914Z,98182.56
2018-04-18T12:13:16.446Z,98185.92
2018-04-18T12:15:43.927Z,98185.00
2018-04-18T12:18:11.372Z,98184.78
2018-04-18T12:20:38.847Z,98180.08
2018-04-18T12:23:06.399Z,98179.95
2018-04-18T12:25:37.245Z,98177.67
2018-04-18T12:28:04.805Z,98177.31
2018-04-18T12:30:32.246Z,98171.02
2018-04-18T12:33:00.219Z,98168.52
2018-04-18T12:35:27.688Z,98159.72
2018-04-18T12:37:55.123Z,98162.92
2018-04-18T12:40:22.564Z,98161.43
2018-04-18T12:42:49.956Z,98159.57
2018-04-18T12:45:17.434Z,98156.30
2018-04-18T12:47:44.905Z,98159.77
2018-04-18T12:50:12.352Z,98153.14
2018-04-18T12:52:43.013Z,98150.02
2018-04-18T12:55:10.458Z,98151.80
2018-04-18T12:57:37.932Z,98150.71
2018-04-18T13:00:05.983Z,98151.06
2018-04-18T13:02:33.399Z,98143.14
2018-04-18T13:05:00.826Z,98144.73
2018-04-18T13:07:28.255Z,98141.37
2018-04-18T13:09:58.852Z,98141.27
2018-04-18T13:12:26.243Z,98138.51
2018-04-18T13:14:53.648Z,98138.25
2018-04-18T13:17:21.208Z,98134.06
2018-04-18T13:19:48.673Z,98132.88
2018-04-18T13:22:16.149Z,98130.85
2018-04-18T13:24:43.576Z,98131.74
2018-04-18T13:27:14.194Z,98123.17
2018-04-18T13:29:41.575Z,98122.98
2018-04-18T13:32:09.050Z,98126.16
2018-04-18T13:34:36.456Z,98125.48
2018-04-18T13:37:03.865Z,98124.56
2018-04-18T13:39:31.312Z,98118.61
2018-04-18T13:41:58.757Z,98113.44
2018-04-18T13:44:29.217Z,98109.66
2018-04-18T13:46:56.746Z,98110.58
2018-04-18T13:49:24.275Z,98106.20
2018-04-18T13:51:51.982Z,98110.64
2018-04-18T13:54:19.444Z,98107.17
2018-04-18T13:56:46.874Z,98107.53
2018-04-18T13:59:14.353Z,98098.97
2018-04-18T14:01:41.815Z,98094.56
2018-04-18T14:04:09.317Z,98100.81
2018-04-18T14:06:36.704Z,98095.95
2018-04-18T14:09:04.137Z,98095.39
2018-04-18T14:11:31.790Z,98089.23
2018-04-18T14:13:59.245Z,98090.47
2018-04-18T14:16:26.744Z,98089.84
2018-04-18T14:18:54.187Z,98082.35
2018-04-18T14:21:21.659Z,98090.63
2018-04-18T14:23:52.233Z,98085.12
2018-04-18T14:26:19.645Z,98083.69
2018-04-18T14:28:47.094Z,98079.77
2018-04-18T14:31:14.561Z,98077.65
2018-04-18T14:33:42.032Z,98067.30
2018-04-18T14:36:09.457Z,98066.55
2018-04-18T14:38:36.952Z,98071.78
2018-04-18T14:41:07.581Z,98063.20
2018-04-18T14:43:34.997Z,98064.00
2018-04-18T14:46:02.478Z,98065.14
2018-04-18T14:48:29.906Z,98060.53
2018-04-18T14:50:57.409Z,98057.67
2018-04-18T14:53:24.905Z,98058.97
2018-04-18T14:55:52.338Z,98054.15
2018-04-18T14:58:19.820Z,98050.02
2018-04-18T15:00:47.415Z,98046.26
2018-04-18T15:03:14.889Z,98058.48
2018-04-18T15:05:42.365Z,98052.38
2018-04-18T15:08:10.018Z,98052.36
2018-04-18T15:10:37.428Z,98050.86
2018-04-18T15:13:04.864Z,98045.89
2018-04-18T15:15:32.347Z,98047.29
2018-04-18T15:17:59.817Z,98048.17
2018-04-18T15:20:27.231Z,98046.99
2018-04-18T15:22:54.691Z,98043.82
2018-04-18T15:25:25.211Z,98047.92
2018-04-18T15:27:52.696Z,98045.07
2018-04-18T15:30:20.106Z,98042.13
2018-04-18T15:32:47.596Z,98040.20
2018-04-18T15:35:15.057Z,98038.82
2018-04-18T15:37:43.117Z,98039.48
2018-04-18T15:40:10.553Z,98038.15
2018-04-18T15:42:43.800Z,98038.66
2018-04-18T15:45:11.302Z,98028.12
2018-04-18T15:47:38.751Z,98035.50
2018-04-18T15:50:06.200Z,98028.79
2018-04-18T15:52:33.675Z,98036.18
2018-04-18T15:55:01.127Z,98029.14
2018-04-18T15:57:28.949Z,98024.20
2018-04-18T15:59:56.413Z,98029.91
2018-04-18T16:02:23.872Z,98032.03
2018-04-18T16:04:51.320Z,98030.17
2018-04-18T16:07:18.789Z,98031.61
2018-04-18T16:09:46.212Z,98027.92
2018-04-18T16:12:13.661Z,98028.14
2018-04-18T16:14:41.113Z,98016.16
2018-04-18T16:17:08.588Z,98023.38
2018-04-18T16:19:35.999Z,98019.19
2018-04-18T16:22:03.473Z,98011.13
2018-04-18T16:24:30.957Z,98016.30
2018-04-18T16:26:58.371Z,98022.80
2018-04-18T16:29:40.739Z,98017.10
2018-04-18T16:32:08.179Z,98018.86
2018-04-18T16:34:35.863Z,98018.58
2018-04-18T16:37:03.408Z,98016.74
2018-04-18T16:39:31.007Z,98017.35
2018-04-18T16:41:58.525Z,98016.36
2018-04-18T16:44:26.762Z,98016.36
2018-04-18T16:46:54.198Z,98017.03
2018-04-18T16:49:21.631Z,98005.53
2018-04-18T16:51:49.184Z,98006.66
2018-04-18T16:54:19.675Z,98017.17
2018-04-18T16:56:47.192Z,98020.00
2018-04-18T16:59:14.677Z,98012.88
2018-04-18T17:01:42.190Z,98010.20
2018-04-18T17:04:09.578Z,98006.94
2018-04-18T17:06:37.320Z,98009.42
2018-04-18T17:09:05.514Z,98006.16
2018-04-18T17:11:32.965Z,98006.78
2018-04-18T17:14:00.407Z,97997.86
2018-04-18T17:16:27.858Z,98005.71
2018-04-18T17:18:55.270Z,98000.05
2018-04-18T17:21:22.663Z,98002.70
2018-04-18T17:23:50.131Z,98005.13
2018-04-18T17:26:17.792Z,97995.78
2018-04-18T17:28:45.267Z,98000.31
2018-04-18T17:31:12.781Z,97999.97
2018-04-18T17:33:40.275Z,98006.37
2018-04-18T17:36:07.943Z,98003.59
2018-04-18T17:38:35.404Z,98007.97
2018-04-18T17:41:02.908Z,98005.80
2018-04-18T17:43:30.324Z,98006.25
2018-04-18T17:45:57.816Z,98005.33
2018-04-18T17:48:25.462Z,98004.70
2018-04-18T17:50:52.923Z,98003.39
2018-04-18T17:53:20.447Z,98009.73
2018-04-18T17:55:47.913Z,98008.95
2018-04-18T17:58:15.601Z,98006.11
2018-04-18T18:00:43.094Z,98006.23
2018-04-18T18:03:10.516Z,98001.97
2018-04-18T18:05:37.937Z,98004.96
2018-04-18T18:08:05.344Z,98000.81
2018-04-18T18:10:32.788Z,98004.40
2018-04-18T18:13:00.271Z,98012.54
2018-04-18T18:15:27.953Z,98010.95
2018-04-18T18:17:55.390Z,98011.95
2018-04-18T18:20:22.851Z,98018.34
2018-04-18T18:22:50.291Z,98018.59
2018-04-18T18:25:17.710Z,98019.56
2018-04-18T18:27:45.133Z,98024.56
2018-04-18T18:30:12.622Z,98026.37
2018-04-18T18:32:40.091Z,98025.88
2018-04-18T18:35:07.536Z,98023.50
2018-04-18T18:37:35.019Z,98018.67
2018-04-18T18:40:02.458Z,98027.63
2018-04-18T18:42:29.907Z,98025.95
2018-04-18T18:44:57.351Z,98031.88
2018-04-18T18:47:25.297Z,98023.67
2018-04-18T18:49:52.764Z,98028.30
2018-04-18T18:52:20.179Z,98033.53
2018-04-18T18:54:47.636Z,98031.56
2018-04-18T18:57:15.062Z,98032.46
2018-04-18T18:59:45.571Z,98029.63
2018-04-18T19:02:13.041Z,98036.32
2018-04-18T19:04:40.525Z,98040.34
2018-04-18T19:07:07.968Z,98037.13
2018-04-18T19:09:35.408Z,98044.78
2018-04-18T19:12:02.913Z,98054.98
2018-04-18T19:14:30.392Z,98053.84
2018-04-18T19:16:57.922Z,98060.35
2018-04-18T19:19:25.347Z,98062.32
2018-04-18T19:21:52.799Z,98063.02
2018-04-18T19:24:20.266Z,98063.59
2018-04-18T19:26:47.707Z,98062.45
2018-04-18T19:29:15.154Z,98067.20
2018-04-18T19:31:42.566Z,98069.78
2018-04-18T19:34:10.045Z,98067.13
2018-04-18T19:36:37.520Z,98076.00
2018-04-18T19:39:04.962Z,98078.81
2018-04-18T19:41:32.431Z,98086.30
2018-04-18T19:43:59.862Z,98088.13
2018-04-18T19:46:30.408Z,98084.19
2018-04-18T19:48:57.872Z,98087.37
2018-04-18T19:51:25.407Z,98088.78
2018-04-18T19:53:52.901Z,98085.61
2018-04-18T19:56:20.393Z,98094.52
2018-04-18T19:58:47.877Z,98088.06
2018-04-18T20:01:15.378Z,98092.02
2018-04-18T20:03:42.919Z,98091.19
2018-04-18T20:06:10.354Z,98091.61
2018-04-18T20:08:37.795Z,98094.56
2018-04-18T20:11:05.492Z,98101.17
2018-04-18T20:13:32.954Z,98101.05
2018-04-18T20:16:00.419Z,98092.35
2018-04-18T20:18:27.911Z,98094.44
2018-04-18T20:20:55.388Z,98098.03
2018-04-18T20:23:22.809Z,98099.94
2018-04-18T20:25:50.247Z,98100.81
2018-04-18T20:28:17.698Z,98102.00
2018-04-18T20:30:45.139Z,98098.31
2018-04-18T20:33:12.615Z,98102.77
2018-04-18T20:35:40.027Z,98099.45
2018-04-18T20:38:07.489Z,98101.59
2018-04-18T20:40:34.875Z,98104.44
2018-04-18T20:43:02.351Z,98102.69
2018-04-18T20:48:05.680Z,98106.91
2018-04-18T20:50:33.139Z,98111.23
2018-04-18T20:53:00.690Z,98119.35
2018-04-18T20:55:28.210Z,98109.17
2018-04-18T20:57:55.665Z,98119.58
2018-04-18T21:00:23.137Z,98116.84
2018-04-18T21:02:50.590Z,98120.63
2018-04-18T21:05:17.999Z,98117.41
2018-04-18T21:07:45.481Z,98119.47
2018-04-18T21:10:12.915Z,98121.38
2018-04-18T21:12:40.352Z,98130.48
2018-04-18T21:15:07.901Z,98128.02
2018-04-18T21:17:35.370Z,98133.73
2018-04-18T21:20:02.865Z,98126.48
2018-04-18T21:22:30.297Z,98123.70
2018-04-18T21:24:58.284Z,98133.66
2018-04-18T21:27:25.723Z,98127.64
2018-04-18T21:32:56.066Z,98128.66
2018-04-18T21:35:23.509Z,98123.30
2018-04-18T21:37:51.027Z,98125.11
2018-04-18T21:40:18.489Z,98132.30
2018-04-18T21:42:45.971Z,98127.25
2018-04-18T21:45:13.448Z,98125.03
2018-04-18T21:47:40.981Z,98128.10
2018-04-18T21:50:08.415Z,98130.58
2018-04-18T21:52:35.930Z,98131.73
2018-04-18T21:55:03.514Z,98135.95
2018-04-18T21:57:30.917Z,98138.31
2018-04-18T21:59:58.492Z,98139.86
2018-04-18T22:02:25.968Z,98146.12
2018-04-18T22:04:53.397Z,98146.83
2018-04-18T22:07:20.888Z,98147.94
2018-04-18T22:09:48.316Z,98145.33
2018-04-18T22:12:15.776Z,98150.25
2018-04-18T22:14:43.227Z,98147.97
2018-04-18T22:17:10.683Z,98152.58
2018-04-18T22:19:38.105Z,98150.73
2018-04-18T22:22:05.546Z,98145.11
2018-04-18T22:24:33.027Z,98146.09
2018-04-18T22:27:00.575Z,98158.44
2018-04-18T22:29:28.033Z,98156.28
2018-04-18T22:31:55.463Z,98161.82
2018-04-18T22:34:22.959Z,98160.20
2018-04-18T22:36:50.416Z,98166.36
2018-04-18T22:39:18.026Z,98162.23
2018-04-18T22:41:45.507Z,98164.45
2018-04-18T22:44:13.185Z,98166.92
2018-04-18T22:46:40.977Z,98167.68
2018-04-18T22:49:08.440Z,98164.88
2018-04-18T22:51:35.838Z,98166.39
2018-04-18T22:54:03.306Z,98163.64
2018-04-18T22:56:30.774Z,98164.48
2018-04-18T22:58:58.168Z,98163.95
2018-04-18T23:01:25.608Z,98162.30
2018-04-18T23:03:53.076Z,98166.27
2018-04-18T23:06:20.516Z,98157.84
2018-04-18T23:08:47.992Z,98167.75
2018-04-18T23:11:15.411Z,98173.55
2018-04-18T23:13:43.742Z,98170.75
2018-04-18T23:16:11.162Z,98175.30
2018-04-18T23:18:39.495Z,98170.91
2018-04-18T23:21:06.957Z,98166.25
2018-04-18T23:23:34.376Z,98167.52
2018-04-18T23:26:01.779Z,98163.86
2018-04-18T23:28:29.208Z,98161.81
2018-04-18T23:30:56.676Z,98162.64
2018-04-18T23:33:24.491Z,98162.94
2018-04-18T23:35:51.947Z,98165.11
2018-04-18T23:38:19.412Z,98165.39
2018-04-18T23:40:46.964Z,98164.88
2018-04-18T23:43:14.379Z,98158.27
2018-04-18T23:45:41.856Z,98166.05
2018-04-18T23:48:09.295Z,98160.66
2018-04-18T23:50:36.721Z,98162.56
2018-04-18T23:53:04.186Z,98168.20
2018-04-18T23:55:31.627Z,98164.81
2018-04-18T23:57:59.046Z,98160.81
